createdAt,value
2023-03-27T00:01:15.910Z,26.83
2023-03-27T00:03:49.482Z,28.52
2023-03-27T00:06:17.747Z,28.23
2023-03-27T00:08:48.587Z,29.00
2023-03-27T00:11:15.254Z,26.88
2023-03-27T00:13:49.177Z,28.40
2023-03-27T00:16:18.629Z,26.70
2023-03-27T00:18:45.898Z,27.08
2023-03-27T00:21:12.437Z,28.42
2023-03-27T00:23:38.862Z,27.45
2023-03-27T00:26:05.487Z,27.42
2023-03-27T00:28:32.381Z,25.65
2023-03-27T00:30:59.127Z,31.42
2023-03-27T00:33:26.579Z,29.92
2023-03-27T00:35:53.262Z,30.00
2023-03-27T00:38:19.873Z,29.85
2023-03-27T00:40:48.021Z,34.05
2023-03-27T00:43:20.655Z,30.92
2023-03-27T00:45:48.103Z,31.20
2023-03-27T00:48:14.915Z,31.02
2023-03-27T00:50:42.949Z,29.88
2023-03-27T00:53:14.481Z,28.25
2023-03-27T00:55:42.327Z,24.48
2023-03-27T00:58:20.403Z,24.13
2023-03-27T01:00:49.264Z,24.95
2023-03-27T01:03:15.992Z,25.63
2023-03-27T01:05:43.026Z,25.90
2023-03-27T01:08:10.248Z,23.90
2023-03-27T01:10:43.339Z,23.95
2023-03-27T01:13:23.410Z,24.98
2023-03-27T01:15:50.851Z,24.10
2023-03-27T01:18:29.407Z,25.55
2023-03-27T01:21:07.991Z,26.15
2023-03-27T01:23:59.530Z,26.42
2023-03-27T01:26:43.077Z,23.97
2023-03-27T01:29:12.571Z,27.50
2023-03-27T01:31:58.230Z,24.30
2023-03-27T01:34:30.554Z,24.25
2023-03-27T01:37:09.211Z,23.63
2023-03-27T01:39:43.223Z,26.05
2023-03-27T01:42:25.145Z,21.58
2023-03-27T01:45:10.409Z,22.63
2023-03-27T01:47:41.799Z,22.20
2023-03-27T01:50:17.454Z,24.48
2023-03-27T01:52:46.603Z,22.95
2023-03-27T01:55:19.052Z,22.60
2023-03-27T01:57:50.357Z,24.63
2023-03-27T02:00:21.887Z,23.38
2023-03-27T02:02:51.452Z,23.23
2023-03-27T02:05:28.318Z,25.00
2023-03-27T02:08:16.304Z,24.95
2023-03-27T02:10:46.525Z,25.33
2023-03-27T02:13:19.836Z,24.38
2023-03-27T02:15:48.503Z,20.25
2023-03-27T02:18:19.179Z,24.40
2023-03-27T02:20:45.727Z,25.85
2023-03-27T02:23:12.595Z,21.77
2023-03-27T02:25:40.284Z,23.08
2023-03-27T02:28:10.197Z,24.95
2023-03-27T02:30:40.659Z,23.67
2023-03-27T02:33:18.071Z,23.40
2023-03-27T02:36:11.080Z,22.80
2023-03-27T02:38:41.694Z,23.90
2023-03-27T02:41:21.477Z,23.80
2023-03-27T02:43:54.065Z,20.58
2023-03-27T02:46:34.515Z,19.00
2023-03-27T02:49:07.615Z,25.65
2023-03-27T02:51:40.386Z,24.35
2023-03-27T02:54:11.563Z,25.77
2023-03-27T02:56:43.594Z,26.05
2023-03-27T02:59:22.697Z,24.63
2023-03-27T03:01:49.752Z,21.35
2023-03-27T03:04:26.502Z,24.30
2023-03-27T03:07:16.208Z,24.98
2023-03-27T03:09:44.574Z,24.60
2023-03-27T03:12:11.150Z,27.65
2023-03-27T03:14:44.017Z,23.67
2023-03-27T03:17:11.327Z,24.55
2023-03-27T03:19:38.051Z,27.10
2023-03-27T03:22:04.850Z,29.10
2023-03-27T03:24:33.384Z,26.25
2023-03-27T03:27:02.499Z,28.02
2023-03-27T03:29:30.256Z,27.70
2023-03-27T03:32:08.970Z,31.40
2023-03-27T03:34:36.530Z,27.92
2023-03-27T03:37:03.284Z,28.70
2023-03-27T03:39:31.135Z,31.42
2023-03-27T03:41:57.614Z,29.60
2023-03-27T03:44:24.047Z,26.20
2023-03-27T03:46:50.602Z,28.52
2023-03-27T03:49:20.676Z,23.33
2023-03-27T03:51:47.228Z,30.35
2023-03-27T03:54:30.673Z,25.20
2023-03-27T03:56:57.257Z,23.85
2023-03-27T03:59:23.976Z,27.60
2023-03-27T04:02:12.993Z,27.13
2023-03-27T04:04:40.105Z,31.15
2023-03-27T04:07:10.674Z,27.77
2023-03-27T04:09:42.991Z,30.17
2023-03-27T04:12:16.704Z,27.35
2023-03-27T04:14:56.985Z,26.52
2023-03-27T04:17:48.555Z,26.50
2023-03-27T04:20:15.400Z,33.40
2023-03-27T04:22:46.337Z,30.23
2023-03-27T04:25:14.826Z,31.05
2023-03-27T04:27:44.188Z,29.33
2023-03-27T04:30:33.791Z,27.15
2023-03-27T04:33:18.545Z,26.75
2023-03-27T04:36:08.759Z,33.13
2023-03-27T04:38:44.526Z,34.88
2023-03-27T04:41:13.538Z,42.10
2023-03-27T04:43:42.885Z,39.40
2023-03-27T04:46:09.718Z,37.00
2023-03-27T04:48:39.041Z,36.15
2023-03-27T04:51:32.533Z,40.03
2023-03-27T04:53:59.576Z,51.97
2023-03-27T04:56:26.106Z,46.10
2023-03-27T04:58:54.486Z,45.80
2023-03-27T05:01:21.237Z,49.70
2023-03-27T05:04:14.409Z,43.25
2023-03-27T05:07:00.061Z,43.33
2023-03-27T05:09:27.053Z,38.15
2023-03-27T05:11:53.666Z,42.65
2023-03-27T05:14:20.910Z,36.40
2023-03-27T05:16:52.107Z,29.98
2023-03-27T05:19:20.150Z,35.90
2023-03-27T05:21:55.212Z,30.55
2023-03-27T05:24:21.738Z,29.27
2023-03-27T05:26:48.617Z,28.42
2023-03-27T05:29:16.756Z,27.35
2023-03-27T05:31:45.553Z,27.85
2023-03-27T05:34:30.848Z,25.42
2023-03-27T05:37:05.729Z,26.77
2023-03-27T05:39:36.783Z,25.67
2023-03-27T05:42:08.325Z,19.73
2023-03-27T05:44:34.950Z,21.88
2023-03-27T05:47:01.388Z,16.90
2023-03-27T05:49:31.809Z,18.80
2023-03-27T05:52:08.492Z,17.23
2023-03-27T05:54:35.811Z,15.25
2023-03-27T05:57:07.877Z,20.02
2023-03-27T05:59:34.794Z,16.42
2023-03-27T06:02:20.536Z,17.30
2023-03-27T06:04:54.154Z,15.68
2023-03-27T06:07:28.433Z,16.65
2023-03-27T06:10:00.390Z,19.70
2023-03-27T06:12:32.856Z,15.15
2023-03-27T06:15:08.531Z,16.55
2023-03-27T06:17:41.224Z,17.20
2023-03-27T06:20:12.634Z,15.27
2023-03-27T06:22:47.772Z,16.52
2023-03-27T06:25:15.880Z,16.55
2023-03-27T06:27:43.281Z,11.43
2023-03-27T06:30:11.244Z,12.02
2023-03-27T06:32:43.722Z,11.48
2023-03-27T06:35:11.144Z,9.23
2023-03-27T06:37:51.367Z,12.80
2023-03-27T06:40:22.890Z,8.55
2023-03-27T06:42:58.439Z,8.90
2023-03-27T06:45:32.395Z,7.78
2023-03-27T06:48:25.015Z,7.32
2023-03-27T06:50:55.625Z,7.18
2023-03-27T06:55:52.824Z,11.98
2023-03-27T06:58:20.499Z,7.93
2023-03-27T07:00:49.613Z,9.00
2023-03-27T07:03:17.785Z,8.50
2023-03-27T07:06:02.649Z,8.70
2023-03-27T07:08:37.154Z,7.00
2023-03-27T07:13:34.152Z,12.02
2023-03-27T07:16:04.489Z,10.27
2023-03-27T07:18:32.962Z,9.45
2023-03-27T07:20:59.945Z,11.82
2023-03-27T07:23:27.280Z,9.80
2023-03-27T07:26:02.686Z,10.52
2023-03-27T07:28:50.524Z,7.85
2023-03-27T07:33:47.491Z,7.00
2023-03-27T07:36:14.253Z,8.50
2023-03-27T07:38:47.541Z,9.43
2023-03-27T07:41:32.490Z,6.63
2023-03-27T07:43:59.491Z,9.40
2023-03-27T07:46:30.830Z,5.95
2023-03-27T07:49:02.075Z,6.22
2023-03-27T07:51:28.503Z,11.88
2023-03-27T07:53:58.436Z,5.82
2023-03-27T07:56:33.376Z,6.60
2023-03-27T07:59:28.126Z,7.07
2023-03-27T08:01:57.699Z,8.45
2023-03-27T08:04:27.348Z,4.60
2023-03-27T08:07:05.432Z,8.43
2023-03-27T08:09:32.420Z,7.85
2023-03-27T08:11:58.867Z,4.25
2023-03-27T08:14:26.333Z,8.30
2023-03-27T08:17:05.179Z,5.80
2023-03-27T08:19:39.892Z,5.82
2023-03-27T08:22:06.350Z,10.48
2023-03-27T08:24:46.059Z,5.05
2023-03-27T08:27:22.023Z,7.75
2023-03-27T08:29:49.241Z,6.97
2023-03-27T08:32:18.005Z,6.45
2023-03-27T08:34:45.949Z,6.03
2023-03-27T08:37:18.318Z,5.88
2023-03-27T08:40:11.037Z,7.38
2023-03-27T08:42:40.315Z,5.78
2023-03-27T08:45:13.715Z,7.28
2023-03-27T08:47:55.105Z,3.67
2023-03-27T08:50:52.968Z,7.13
2023-03-27T08:53:30.837Z,7.80
2023-03-27T08:55:58.734Z,4.32
2023-03-27T08:58:38.523Z,7.95
2023-03-27T09:01:36.570Z,5.20
2023-03-27T09:04:27.169Z,11.63
2023-03-27T09:07:03.573Z,5.75
2023-03-27T09:09:34.978Z,5.72
2023-03-27T09:12:13.019Z,4.53
2023-03-27T09:14:43.168Z,7.47
2023-03-27T09:17:18.506Z,5.28
2023-03-27T09:19:50.918Z,7.80
2023-03-27T09:22:23.572Z,4.28
2023-03-27T09:25:30.807Z,7.63
2023-03-27T09:28:38.076Z,5.45
2023-03-27T09:31:20.109Z,7.97
2023-03-27T09:33:47.370Z,4.38
2023-03-27T09:36:13.831Z,3.97
2023-03-27T09:38:44.756Z,7.85
2023-03-27T09:41:21.556Z,5.68
2023-03-27T09:43:53.552Z,6.05
2023-03-27T09:46:21.967Z,5.55
2023-03-27T09:49:05.325Z,3.92
2023-03-27T09:51:39.493Z,6.10
2023-03-27T09:54:14.417Z,4.20
2023-03-27T09:56:42.289Z,8.23
2023-03-27T09:59:20.265Z,6.10
2023-03-27T10:01:48.579Z,7.07
2023-03-27T10:04:19.353Z,5.60
2023-03-27T10:06:56.265Z,4.65
2023-03-27T10:09:34.228Z,5.50
2023-03-27T10:12:07.808Z,5.22
2023-03-27T10:14:37.888Z,8.98
2023-03-27T10:17:05.423Z,5.32
2023-03-27T10:19:39.967Z,6.60
2023-03-27T10:22:23.372Z,7.18
2023-03-27T10:24:51.973Z,6.15
2023-03-27T10:27:40.544Z,4.30
2023-03-27T10:30:40.905Z,4.32
2023-03-27T10:33:30.043Z,7.07
2023-03-27T10:36:10.279Z,3.85
2023-03-27T10:38:38.466Z,6.03
2023-03-27T10:41:30.989Z,6.93
2023-03-27T10:43:59.131Z,7.68
2023-03-27T10:46:27.028Z,6.43
2023-03-27T10:48:55.637Z,6.78
2023-03-27T10:51:46.823Z,8.13
2023-03-27T10:54:33.033Z,7.13
2023-03-27T10:57:12.394Z,6.90
2023-03-27T10:59:44.282Z,7.88
2023-03-27T11:02:23.552Z,11.15
2023-03-27T11:05:08.275Z,7.88
2023-03-27T11:07:40.712Z,5.75
2023-03-27T11:10:14.649Z,10.80
2023-03-27T11:12:44.460Z,6.10
2023-03-27T11:15:19.796Z,4.22
2023-03-27T11:17:49.864Z,9.90
2023-03-27T11:20:32.137Z,6.22
2023-03-27T11:23:24.694Z,8.45
2023-03-27T11:26:16.224Z,6.05
2023-03-27T11:28:53.009Z,5.07
2023-03-27T11:31:40.207Z,7.85
2023-03-27T11:34:15.392Z,6.63
2023-03-27T11:36:59.848Z,5.38
2023-03-27T11:39:38.844Z,7.68
2023-03-27T11:42:13.490Z,5.88
2023-03-27T11:44:39.943Z,4.65
2023-03-27T11:47:19.614Z,5.25
2023-03-27T11:49:47.797Z,4.38
2023-03-27T11:52:20.969Z,10.13
2023-03-27T11:54:53.611Z,4.05
2023-03-27T11:57:25.890Z,7.05
2023-03-27T12:00:01.842Z,5.32
2023-03-27T12:02:57.111Z,5.47
2023-03-27T12:05:25.687Z,5.68
2023-03-27T12:08:06.873Z,7.30
2023-03-27T12:10:38.329Z,6.18
2023-03-27T12:13:28.846Z,8.30
2023-03-27T12:16:11.028Z,4.82
2023-03-27T12:19:10.784Z,5.43
2023-03-27T12:21:51.625Z,10.68
2023-03-27T12:24:21.147Z,7.80
2023-03-27T12:27:13.929Z,8.40
2023-03-27T12:29:58.654Z,3.72
2023-03-27T12:32:44.734Z,5.18
2023-03-27T12:35:14.863Z,7.03
2023-03-27T12:37:50.512Z,5.18
2023-03-27T12:40:33.495Z,5.82
2023-03-27T12:43:06.822Z,5.20
2023-03-27T12:45:38.806Z,4.55
2023-03-27T12:48:11.947Z,5.20
2023-03-27T12:50:48.173Z,5.95
2023-03-27T12:53:26.935Z,8.50
2023-03-27T12:56:17.586Z,5.00
2023-03-27T12:58:48.813Z,8.10
2023-03-27T13:01:38.878Z,6.78
2023-03-27T13:04:33.454Z,4.97
2023-03-27T13:07:20.499Z,7.88
2023-03-27T13:10:11.551Z,8.00
2023-03-27T13:12:46.401Z,3.42
2023-03-27T13:15:31.586Z,6.10
2023-03-27T13:18:13.239Z,4.95
2023-03-27T13:20:45.637Z,7.70
2023-03-27T13:25:48.065Z,6.97
2023-03-27T13:28:26.240Z,5.53
2023-03-27T13:31:03.108Z,5.75
2023-03-27T13:34:14.271Z,6.47
2023-03-27T13:36:48.709Z,5.65
2023-03-27T13:39:22.481Z,4.53
2023-03-27T13:41:59.821Z,7.00
2023-03-27T13:45:07.280Z,6.65
2023-03-27T13:47:54.167Z,3.97
2023-03-27T13:50:36.399Z,5.32
2023-03-27T13:53:24.192Z,5.15
2023-03-27T13:58:52.804Z,4.28
2023-03-27T14:01:34.188Z,7.53
2023-03-27T14:04:10.266Z,5.57
2023-03-27T14:06:55.772Z,5.82
2023-03-27T14:09:40.924Z,6.55
2023-03-27T14:12:20.668Z,9.10
2023-03-27T14:15:20.177Z,9.07
2023-03-27T14:18:27.384Z,5.15
2023-03-27T14:20:58.534Z,4.35
2023-03-27T14:23:28.455Z,6.78
2023-03-27T14:26:10.639Z,9.25
2023-03-27T14:28:42.265Z,4.45
2023-03-27T14:31:14.747Z,8.57
2023-03-27T14:34:01.582Z,5.65
2023-03-27T14:36:30.986Z,7.22
2023-03-27T14:39:06.429Z,4.28
2023-03-27T14:41:48.353Z,7.05
2023-03-27T14:44:17.499Z,6.63
2023-03-27T14:46:45.196Z,8.23
2023-03-27T14:49:13.943Z,6.30
2023-03-27T14:51:47.419Z,4.22
2023-03-27T14:54:27.389Z,4.75
2023-03-27T14:57:01.909Z,3.60
2023-03-27T14:59:37.500Z,7.88
2023-03-27T15:02:42.154Z,6.68
2023-03-27T15:05:13.142Z,4.53
2023-03-27T15:07:43.954Z,5.93
2023-03-27T15:10:49.830Z,3.38
2023-03-27T15:13:35.625Z,4.40
2023-03-27T15:16:06.581Z,4.72
2023-03-27T15:18:40.036Z,7.22
2023-03-27T15:23:41.637Z,5.28
2023-03-27T15:26:18.978Z,4.30
2023-03-27T15:28:53.587Z,6.07
2023-03-27T15:31:20.353Z,6.38
2023-03-27T15:33:57.062Z,3.78
2023-03-27T15:36:29.363Z,6.90
2023-03-27T15:38:58.486Z,3.92
2023-03-27T15:41:27.976Z,9.75
2023-03-27T15:44:16.182Z,10.10
2023-03-27T15:46:47.085Z,10.43
2023-03-27T15:49:20.537Z,6.63
2023-03-27T15:51:47.087Z,5.82
2023-03-27T15:54:28.942Z,8.98
2023-03-27T15:57:09.401Z,6.55
2023-03-27T15:59:37.715Z,7.90
2023-03-27T16:02:20.532Z,7.35
2023-03-27T16:04:53.494Z,9.13
2023-03-27T16:07:22.804Z,10.73
2023-03-27T16:10:02.611Z,10.18
2023-03-27T16:12:33.430Z,5.20
2023-03-27T16:15:00.390Z,8.38
2023-03-27T16:17:29.717Z,9.07
2023-03-27T16:20:00.964Z,5.60
2023-03-27T16:22:31.884Z,6.55
2023-03-27T16:24:59.130Z,6.15
2023-03-27T16:27:28.351Z,6.00
2023-03-27T16:29:54.908Z,8.70
2023-03-27T16:32:22.176Z,9.85
2023-03-27T16:34:51.230Z,6.18
2023-03-27T16:37:18.711Z,11.50
2023-03-27T16:39:45.242Z,4.07
2023-03-27T16:42:16.935Z,5.15
2023-03-27T16:44:44.218Z,9.18
2023-03-27T16:47:11.364Z,4.97
2023-03-27T16:49:37.780Z,5.55
2023-03-27T16:52:04.337Z,12.32
2023-03-27T16:54:30.994Z,5.82
2023-03-27T16:56:57.776Z,4.68
2023-03-27T16:59:24.438Z,11.77
2023-03-27T17:01:51.043Z,11.70
2023-03-27T17:04:19.468Z,7.60
2023-03-27T17:06:46.756Z,9.90
2023-03-27T17:09:13.505Z,5.68
2023-03-27T17:11:40.528Z,7.57
2023-03-27T17:14:07.238Z,12.23
2023-03-27T17:16:34.121Z,6.10
2023-03-27T17:19:00.690Z,5.72
2023-03-27T17:21:27.752Z,13.20
2023-03-27T17:23:54.356Z,7.38
2023-03-27T17:26:25.320Z,7.00
2023-03-27T17:28:52.082Z,9.88
2023-03-27T17:31:18.759Z,7.20
2023-03-27T17:33:45.446Z,5.55
2023-03-27T17:36:12.895Z,8.55
2023-03-27T17:38:39.923Z,6.22
2023-03-27T17:41:06.648Z,5.50
2023-03-27T17:43:33.080Z,10.48
2023-03-27T17:45:59.757Z,5.82
2023-03-27T17:48:26.473Z,5.43
2023-03-27T17:51:07.515Z,10.70
2023-03-27T17:53:36.504Z,5.07
2023-03-27T17:56:03.139Z,7.68
2023-03-27T17:58:29.634Z,6.70
2023-03-27T18:00:56.396Z,5.88
2023-03-27T18:03:22.970Z,6.30
2023-03-27T18:05:49.433Z,6.85
2023-03-27T18:08:16.647Z,5.15
2023-03-27T18:10:45.112Z,6.97
2023-03-27T18:13:11.924Z,7.60
2023-03-27T18:15:39.436Z,6.43
2023-03-27T18:18:06.023Z,9.35
2023-03-27T18:20:32.725Z,8.63
2023-03-27T18:22:59.160Z,4.53
2023-03-27T18:25:25.764Z,8.98
2023-03-27T18:27:52.267Z,11.20
2023-03-27T18:30:18.870Z,6.03
2023-03-27T18:32:46.061Z,5.30
2023-03-27T18:35:14.681Z,8.13
2023-03-27T18:37:42.101Z,4.50
2023-03-27T18:40:09.718Z,8.70
2023-03-27T18:42:36.539Z,12.00
2023-03-27T18:45:03.577Z,7.03
2023-03-27T18:47:30.905Z,20.92
2023-03-27T18:49:57.663Z,11.00
2023-03-27T18:52:24.784Z,9.65
2023-03-27T18:54:51.657Z,7.60
2023-03-27T18:57:21.274Z,12.93
2023-03-27T18:59:48.330Z,7.85
2023-03-27T19:02:14.971Z,9.85
2023-03-27T19:04:41.617Z,7.18
2023-03-27T19:07:08.862Z,5.25
2023-03-27T19:09:41.483Z,7.00
2023-03-27T19:12:08.386Z,5.30
2023-03-27T19:14:53.111Z,7.22
2023-03-27T19:17:39.874Z,9.15
2023-03-27T19:20:17.240Z,8.57
2023-03-27T19:22:50.468Z,5.53
2023-03-27T19:25:46.602Z,5.97
2023-03-27T19:28:13.086Z,6.20
2023-03-27T19:30:39.618Z,5.82
2023-03-27T19:33:06.565Z,7.47
2023-03-27T19:35:33.115Z,6.20
2023-03-27T19:37:59.855Z,6.30
2023-03-27T19:40:26.604Z,12.57
2023-03-27T19:42:53.158Z,5.30
2023-03-27T19:45:19.653Z,8.02
2023-03-27T19:47:47.064Z,19.95
2023-03-27T19:50:14.674Z,3.63
2023-03-27T19:53:08.816Z,11.65
2023-03-27T19:55:35.827Z,7.18
2023-03-27T19:58:02.323Z,7.93
2023-03-27T20:00:58.309Z,8.98
2023-03-27T20:03:25.129Z,8.48
2023-03-27T20:05:54.267Z,6.78
2023-03-27T20:08:21.463Z,4.47
2023-03-27T20:10:50.003Z,25.17
2023-03-27T20:13:17.794Z,19.00
2023-03-27T20:15:49.395Z,4.70
2023-03-27T20:18:18.193Z,6.28
2023-03-27T20:20:46.279Z,10.90
2023-03-27T20:23:14.581Z,7.78
2023-03-27T20:25:42.035Z,6.10
2023-03-27T20:28:08.758Z,3.72
2023-03-27T20:30:36.932Z,10.32
2023-03-27T20:33:04.565Z,6.35
2023-03-27T20:35:32.840Z,4.80
2023-03-27T20:38:04.742Z,6.15
2023-03-27T20:40:53.370Z,5.15
2023-03-27T20:43:24.310Z,10.00
2023-03-27T20:45:52.959Z,5.60
2023-03-27T20:48:21.970Z,5.55
2023-03-27T20:50:51.680Z,10.65
2023-03-27T20:53:19.412Z,4.95
2023-03-27T20:55:57.056Z,6.63
2023-03-27T20:58:26.419Z,6.30
2023-03-27T21:00:53.753Z,5.40
2023-03-27T21:03:20.928Z,9.68
2023-03-27T21:05:47.473Z,5.38
2023-03-27T21:08:14.027Z,5.90
2023-03-27T21:10:40.733Z,8.52
2023-03-27T21:13:07.276Z,6.85
2023-03-27T21:15:33.697Z,6.68
2023-03-27T21:18:00.672Z,6.70
2023-03-27T21:20:27.532Z,5.70
2023-03-27T21:22:53.931Z,7.40
2023-03-27T21:25:23.452Z,10.45
2023-03-27T21:27:57.001Z,8.57
2023-03-27T21:30:24.051Z,7.18
2023-03-27T21:33:10.498Z,12.73
2023-03-27T21:35:41.438Z,8.82
2023-03-27T21:38:08.615Z,11.27
2023-03-27T21:40:37.466Z,5.68
2023-03-27T21:43:03.903Z,7.50
2023-03-27T21:45:30.889Z,10.02
2023-03-27T21:47:57.303Z,6.78
2023-03-27T21:50:23.707Z,6.78
2023-03-27T21:52:50.244Z,9.40
2023-03-27T21:55:16.980Z,7.72
2023-03-27T21:57:43.392Z,7.00
2023-03-27T22:00:10.540Z,9.68
2023-03-27T22:02:39.531Z,5.45
2023-03-27T22:05:06.654Z,9.73
2023-03-27T22:07:33.942Z,10.30
2023-03-27T22:10:01.361Z,7.07
2023-03-27T22:12:27.875Z,5.85
2023-03-27T22:14:54.781Z,9.15
2023-03-27T22:17:21.856Z,6.97
2023-03-27T22:19:48.460Z,6.47
2023-03-27T22:22:15.044Z,10.15
2023-03-27T22:24:41.480Z,7.38
2023-03-27T22:27:08.062Z,5.93
2023-03-27T22:29:34.578Z,11.75
2023-03-27T22:32:01.267Z,6.90
2023-03-27T22:34:27.969Z,8.75
2023-03-27T22:36:54.487Z,9.15
2023-03-27T22:39:21.028Z,8.35
2023-03-27T22:41:47.549Z,6.45
2023-03-27T22:44:14.114Z,9.15
2023-03-27T22:46:40.854Z,8.32
2023-03-27T22:49:07.393Z,8.77
2023-03-27T22:51:33.967Z,11.85
2023-03-27T22:54:00.569Z,13.85
2023-03-27T22:56:27.076Z,12.00
2023-03-27T22:58:53.728Z,13.77
2023-03-27T23:01:20.423Z,15.77
2023-03-27T23:03:47.155Z,11.30
2023-03-27T23:06:21.606Z,10.70
2023-03-27T23:08:49.259Z,9.10
2023-03-27T23:11:15.892Z,11.88
2023-03-27T23:13:42.317Z,13.63
2023-03-27T23:16:09.308Z,12.68
2023-03-27T23:18:36.052Z,10.32
2023-03-27T23:21:04.240Z,13.27
2023-03-27T23:23:31.710Z,11.82
2023-03-27T23:25:58.979Z,8.48
2023-03-27T23:28:26.412Z,13.57
2023-03-27T23:30:58.865Z,10.18
2023-03-27T23:33:26.036Z,11.37
2023-03-27T23:35:53.538Z,14.82
2023-03-27T23:38:20.310Z,10.93
2023-03-27T23:40:46.738Z,10.63
2023-03-27T23:43:13.225Z,17.73
2023-03-27T23:45:39.709Z,10.80
2023-03-27T23:48:06.208Z,9.48
2023-03-27T23:50:32.654Z,14.35
2023-03-27T23:52:59.053Z,12.13
2023-03-27T23:55:25.628Z,12.07
2023-03-27T23:57:52.050Z,13.45
